KPKB/PKB METAR and TAF weather

Enter ICAO airport designator
Station Type Date Time Source
KPKB METAR 2019/08/24 22:53 UTC NOAA

KPKB 242253Z 05007KT 10SM FEW060 23/11 A3019 RMK A02 SLP219 T02330106 RTX FIBI


Station Type Date Time Source
KPKB Decoded METAR 2019/08/24 22:53 UTC NOAA

Station name not available
Aug 24, 2019 - 06:53 PM EDT / 2019.08.24 2253 UTC
Wind: from the NE (050 degrees) at 8 MPH (7 KT):0
Visibility: 10 mile(s):0
Sky conditions: mostly clear
Temperature: 73.9 F (23.3 C)
Dew Point: 51.1 F (10.6 C)
Relative Humidity: 44%
Pressure (altimeter): 30.19 in. Hg (1022 hPa)
ob: KPKB 242253Z 05007KT 10SM FEW060 23/11 A3019 RMK A02 SLP219 T02330106 RTX FIBI
cycle: 23

Station Type Date Time Source
KPKB TAF 2019/08/24 18:22 UTC NOAA

TAF KPKB 241720Z 2418/2518 07007KT P6SM SCT050
FM250200 VRB03KT P6SM SKC
FM251100 VRB03KT 5SM BR SKC
FM251400 09004KT P6SM FEW050

Example: see airport list